PAGH

Details ICAO PAGH (SHG)
Name SHUNGNAK
Region USA (Alaska)
Timezone America/Anchorage (UTC-8.0)
Plans Departing 1
Arriving 1
Stats Elevation 197 ft / 60 m (AMSL)
Location 66.888076° -157.162401°
Runways 1
Magnetic Variation 13.865° E
Sunrise 2018-05-26 11:41:26 UTC / 2018-05-26 03:41:26 Local
Sunset 2018-05-27 09:12:56 UTC / 2018-05-27 01:12:56 Local
Advertisement - Login to hide

Runways

ID Width Length Bearing (true) Bearing (mag) Surface Threshold Offset Overrun Length
09 59 ft / 18 m 3,986 ft / 1,215 m 116.59° 102.73° Gravel 0 ft / 0 m 220 ft / 67 m
27 59 ft / 18 m 3,986 ft / 1,215 m 296.61° 282.75° Gravel 0 ft / 0 m 240 ft / 73 m

Map

Weather


0- 5 10 15 20 25 30 35+ Temperature / ° C

Clouds and Precipitation
Forecast for 2018-05-27 06:00 UTC. Updated a few seconds ago

Ground ~20,000 ft ~40,000 ft Winds

METAR

PAGH 270456Z AUTO 31012KT 10SM CLR 14/01 A2971 RMK AO2 SLP065 T01440011

TAF

Not found

Frequencies

Unicom 122.70 MHz CTAF
Warning: Do not use this data for real-world aviation or navigation. No guarantee of current accuracy is given.